sensor_id;sensor_type;location;lat;lon;timestamp;P1;durP1;ratioP1;P2;durP2;ratioP2
2438;SDS011;14509;47.992;7.848;2023-04-25T00:00:27;6.80;;;3.27;;
2438;SDS011;14509;47.992;7.848;2023-04-25T00:02:29;4.07;;;2.40;;
2438;SDS011;14509;47.992;7.848;2023-04-25T00:06:38;4.30;;;2.20;;
2438;SDS011;14509;47.992;7.848;2023-04-25T00:08:40;3.47;;;2.50;;
2438;SDS011;14509;47.992;7.848;2023-04-25T00:10:42;3.57;;;2.03;;
2438;SDS011;14509;47.992;7.848;2023-04-25T00:12:44;4.67;;;2.80;;
2438;SDS011;14509;47.992;7.848;2023-04-25T00:14:45;2.10;;;1.90;;
2438;SDS011;14509;47.992;7.848;2023-04-25T00:16:49;6.40;;;2.43;;
2438;SDS011;14509;47.992;7.848;2023-04-25T00:18:52;6.70;;;2.93;;
2438;SDS011;14509;47.992;7.848;2023-04-25T00:20:55;4.80;;;2.80;;
2438;SDS011;14509;47.992;7.848;2023-04-25T00:22:57;5.73;;;1.80;;
2438;SDS011;14509;47.992;7.848;2023-04-25T00:24:59;3.07;;;2.50;;
2438;SDS011;14509;47.992;7.848;2023-04-25T00:27:00;8.93;;;2.40;;
2438;SDS011;14509;47.992;7.848;2023-04-25T00:29:02;3.07;;;2.20;;
2438;SDS011;14509;47.992;7.848;2023-04-25T00:31:04;3.83;;;3.13;;
2438;SDS011;14509;47.992;7.848;2023-04-25T00:33:06;2.37;;;2.17;;
2438;SDS011;14509;47.992;7.848;2023-04-25T00:35:08;2.17;;;1.97;;
2438;SDS011;14509;47.992;7.848;2023-04-25T00:37:12;6.53;;;2.20;;
2438;SDS011;14509;47.992;7.848;2023-04-25T00:39:14;6.87;;;2.67;;
2438;SDS011;14509;47.992;7.848;2023-04-25T00:41:16;4.07;;;2.40;;
2438;SDS011;14509;47.992;7.848;2023-04-25T00:43:18;2.77;;;2.57;;
2438;SDS011;14509;47.992;7.848;2023-04-25T00:45:20;1.90;;;1.80;;
2438;SDS011;14509;47.992;7.848;2023-04-25T00:47:22;3.90;;;2.50;;
2438;SDS011;14509;47.992;7.848;2023-04-25T00:49:24;2.20;;;2.00;;
2438;SDS011;14509;47.992;7.848;2023-04-25T00:51:27;2.40;;;2.20;;
2438;SDS011;14509;47.992;7.848;2023-04-25T00:53:31;4.17;;;2.43;;
2438;SDS011;14509;47.992;7.848;2023-04-25T00:55:34;6.77;;;2.57;;
2438;SDS011;14509;47.992;7.848;2023-04-25T00:57:36;6.13;;;2.57;;
2438;SDS011;14509;47.992;7.848;2023-04-25T00:59:38;2.70;;;2.33;;
2438;SDS011;14509;47.992;7.848;2023-04-25T01:01:44;3.37;;;2.83;;
2438;SDS011;14509;47.992;7.848;2023-04-25T01:03:47;4.00;;;3.07;;
2438;SDS011;14509;47.992;7.848;2023-04-25T01:05:50;2.80;;;2.03;;
2438;SDS011;14509;47.992;7.848;2023-04-25T01:07:53;5.00;;;3.20;;
2438;SDS011;14509;47.992;7.848;2023-04-25T01:09:56;3.43;;;2.27;;
2438;SDS011;14509;47.992;7.848;2023-04-25T01:11:58;4.30;;;3.30;;
2438;SDS011;14509;47.992;7.848;2023-04-25T01:14:01;4.37;;;2.43;;
2438;SDS011;14509;47.992;7.848;2023-04-25T01:16:03;5.60;;;2.40;;
2438;SDS011;14509;47.992;7.848;2023-04-25T01:18:06;4.37;;;3.10;;
2438;SDS011;14509;47.992;7.848;2023-04-25T01:20:08;3.03;;;2.63;;
2438;SDS011;14509;47.992;7.848;2023-04-25T01:22:13;4.90;;;3.70;;
2438;SDS011;14509;47.992;7.848;2023-04-25T01:24:15;4.77;;;3.00;;
2438;SDS011;14509;47.992;7.848;2023-04-25T01:26:18;5.70;;;2.70;;
2438;SDS011;14509;47.992;7.848;2023-04-25T01:28:21;7.07;;;2.70;;
2438;SDS011;14509;47.992;7.848;2023-04-25T01:30:23;7.23;;;2.53;;
2438;SDS011;14509;47.992;7.848;2023-04-25T01:32:27;3.93;;;2.50;;
2438;SDS011;14509;47.992;7.848;2023-04-25T01:34:29;4.43;;;2.70;;
2438;SDS011;14509;47.992;7.848;2023-04-25T01:36:32;3.97;;;2.80;;
2438;SDS011;14509;47.992;7.848;2023-04-25T01:38:36;3.60;;;3.10;;
2438;SDS011;14509;47.992;7.848;2023-04-25T01:40:38;2.87;;;2.60;;
2438;SDS011;14509;47.992;7.848;2023-04-25T01:42:42;3.10;;;2.43;;
2438;SDS011;14509;47.992;7.848;2023-04-25T01:44:46;4.10;;;2.73;;
2438;SDS011;14509;47.992;7.848;2023-04-25T01:46:47;3.20;;;2.37;;
2438;SDS011;14509;47.992;7.848;2023-04-25T01:48:49;4.87;;;2.93;;
2438;SDS011;14509;47.992;7.848;2023-04-25T01:50:51;3.00;;;2.30;;
2438;SDS011;14509;47.992;7.848;2023-04-25T01:52:53;4.23;;;2.40;;
2438;SDS011;14509;47.992;7.848;2023-04-25T01:54:57;2.87;;;2.10;;
2438;SDS011;14509;47.992;7.848;2023-04-25T01:57:03;3.63;;;2.47;;
2438;SDS011;14509;47.992;7.848;2023-04-25T01:59:09;3.80;;;2.50;;
2438;SDS011;14509;47.992;7.848;2023-04-25T02:01:40;5.03;;;3.20;;
2438;SDS011;14509;47.992;7.848;2023-04-25T02:03:53;5.23;;;4.40;;
2438;SDS011;14509;47.992;7.848;2023-04-25T02:06:01;5.43;;;2.63;;
2438;SDS011;14509;47.992;7.848;2023-04-25T02:08:06;2.90;;;2.47;;
2438;SDS011;14509;47.992;7.848;2023-04-25T02:10:11;7.73;;;2.80;;
2438;SDS011;14509;47.992;7.848;2023-04-25T02:12:25;4.27;;;2.73;;
2438;SDS011;14509;47.992;7.848;2023-04-25T02:14:28;4.33;;;2.90;;
2438;SDS011;14509;47.992;7.848;2023-04-25T02:16:36;5.83;;;2.77;;
2438;SDS011;14509;47.992;7.848;2023-04-25T02:18:41;4.47;;;2.17;;
2438;SDS011;14509;47.992;7.848;2023-04-25T02:20:43;6.23;;;2.70;;
2438;SDS011;14509;47.992;7.848;2023-04-25T02:22:45;5.47;;;2.57;;
2438;SDS011;14509;47.992;7.848;2023-04-25T02:24:47;2.80;;;2.60;;
2438;SDS011;14509;47.992;7.848;2023-04-25T02:26:51;5.83;;;2.47;;
2438;SDS011;14509;47.992;7.848;2023-04-25T02:28:52;4.17;;;3.10;;
2438;SDS011;14509;47.992;7.848;2023-04-25T02:30:55;3.23;;;2.63;;
2438;SDS011;14509;47.992;7.848;2023-04-25T02:32:58;2.17;;;1.97;;
2438;SDS011;14509;47.992;7.848;2023-04-25T02:35:00;3.37;;;2.43;;
2438;SDS011;14509;47.992;7.848;2023-04-25T02:37:04;3.93;;;2.23;;
2438;SDS011;14509;47.992;7.848;2023-04-25T02:39:06;2.50;;;2.30;;
2438;SDS011;14509;47.992;7.848;2023-04-25T02:41:08;2.83;;;2.20;;
2438;SDS011;14509;47.992;7.848;2023-04-25T02:43:11;3.30;;;3.00;;
2438;SDS011;14509;47.992;7.848;2023-04-25T02:45:13;3.40;;;2.40;;
2438;SDS011;14509;47.992;7.848;2023-04-25T02:47:15;3.40;;;2.50;;
2438;SDS011;14509;47.992;7.848;2023-04-25T02:49:17;3.40;;;2.90;;
2438;SDS011;14509;47.992;7.848;2023-04-25T02:51:19;2.47;;;2.27;;
2438;SDS011;14509;47.992;7.848;2023-04-25T02:53:21;2.20;;;2.00;;
2438;SDS011;14509;47.992;7.848;2023-04-25T02:55:25;5.90;;;2.60;;
2438;SDS011;14509;47.992;7.848;2023-04-25T02:57:27;4.90;;;2.63;;
2438;SDS011;14509;47.992;7.848;2023-04-25T02:59:31;4.13;;;2.00;;
2438;SDS011;14509;47.992;7.848;2023-04-25T03:01:33;4.47;;;3.07;;
2438;SDS011;14509;47.992;7.848;2023-04-25T03:03:35;3.30;;;2.33;;
2438;SDS011;14509;47.992;7.848;2023-04-25T03:05:37;2.80;;;2.53;;
2438;SDS011;14509;47.992;7.848;2023-04-25T03:07:40;3.93;;;2.50;;
2438;SDS011;14509;47.992;7.848;2023-04-25T03:09:44;4.17;;;2.30;;
2438;SDS011;14509;47.992;7.848;2023-04-25T03:11:46;5.67;;;2.03;;
2438;SDS011;14509;47.992;7.848;2023-04-25T03:13:48;5.40;;;2.60;;
2438;SDS011;14509;47.992;7.848;2023-04-25T03:15:51;6.20;;;2.47;;
2438;SDS011;14509;47.992;7.848;2023-04-25T03:17:53;3.20;;;1.97;;
2438;SDS011;14509;47.992;7.848;2023-04-25T03:19:57;2.90;;;1.87;;
2438;SDS011;14509;47.992;7.848;2023-04-25T03:21:59;2.10;;;1.90;;
2438;SDS011;14509;47.992;7.848;2023-04-25T03:24:02;3.40;;;2.60;;
2438;SDS011;14509;47.992;7.848;2023-04-25T03:26:05;3.47;;;2.30;;
2438;SDS011;14509;47.992;7.848;2023-04-25T03:28:07;3.13;;;2.60;;
2438;SDS011;14509;47.992;7.848;2023-04-25T03:30:09;3.00;;;2.03;;
2438;SDS011;14509;47.992;7.848;2023-04-25T03:32:14;4.27;;;1.90;;
2438;SDS011;14509;47.992;7.848;2023-04-25T03:34:16;5.27;;;2.33;;
2438;SDS011;14509;47.992;7.848;2023-04-25T03:36:18;3.23;;;1.87;;
2438;SDS011;14509;47.992;7.848;2023-04-25T03:38:20;2.43;;;2.17;;
2438;SDS011;14509;47.992;7.848;2023-04-25T03:40:22;2.37;;;2.17;;
2438;SDS011;14509;47.992;7.848;2023-04-25T03:42:47;3.20;;;1.70;;
2438;SDS011;14509;47.992;7.848;2023-04-25T03:44:49;2.43;;;1.63;;
2438;SDS011;14509;47.992;7.848;2023-04-25T03:46:50;7.03;;;2.23;;
2438;SDS011;14509;47.992;7.848;2023-04-25T03:48:54;3.63;;;2.00;;
2438;SDS011;14509;47.992;7.848;2023-04-25T03:51:13;4.23;;;1.70;;
2438;SDS011;14509;47.992;7.848;2023-04-25T03:53:18;2.80;;;1.83;;
2438;SDS011;14509;47.992;7.848;2023-04-25T03:55:40;2.37;;;1.87;;
2438;SDS011;14509;47.992;7.848;2023-04-25T03:57:45;2.23;;;1.77;;
2438;SDS011;14509;47.992;7.848;2023-04-25T03:59:47;2.40;;;2.10;;
2438;SDS011;14509;47.992;7.848;2023-04-25T04:01:50;2.70;;;1.83;;
2438;SDS011;14509;47.992;7.848;2023-04-25T04:03:53;2.50;;;1.73;;
2438;SDS011;14509;47.992;7.848;2023-04-25T04:05:55;2.50;;;2.30;;
2438;SDS011;14509;47.992;7.848;2023-04-25T04:07:58;3.13;;;1.70;;
2438;SDS011;14509;47.992;7.848;2023-04-25T04:10:00;2.60;;;2.20;;
2438;SDS011;14509;47.992;7.848;2023-04-25T04:12:08;2.60;;;2.20;;
2438;SDS011;14509;47.992;7.848;2023-04-25T04:14:13;4.50;;;2.40;;
2438;SDS011;14509;47.992;7.848;2023-04-25T04:16:18;2.20;;;1.97;;
2438;SDS011;14509;47.992;7.848;2023-04-25T04:18:21;4.67;;;2.97;;
2438;SDS011;14509;47.992;7.848;2023-04-25T04:20:25;5.50;;;2.67;;
2438;SDS011;14509;47.992;7.848;2023-04-25T04:22:27;8.37;;;3.60;;
2438;SDS011;14509;47.992;7.848;2023-04-25T04:24:33;5.63;;;2.87;;
2438;SDS011;14509;47.992;7.848;2023-04-25T04:26:39;3.60;;;2.23;;
2438;SDS011;14509;47.992;7.848;2023-04-25T04:28:54;4.47;;;2.80;;
2438;SDS011;14509;47.992;7.848;2023-04-25T04:31:04;4.20;;;3.10;;
2438;SDS011;14509;47.992;7.848;2023-04-25T04:33:07;4.07;;;2.80;;
2438;SDS011;14509;47.992;7.848;2023-04-25T04:35:10;3.60;;;2.20;;
2438;SDS011;14509;47.992;7.848;2023-04-25T04:37:15;5.87;;;2.27;;
2438;SDS011;14509;47.992;7.848;2023-04-25T04:39:17;4.23;;;2.07;;
2438;SDS011;14509;47.992;7.848;2023-04-25T04:41:34;3.40;;;2.80;;
2438;SDS011;14509;47.992;7.848;2023-04-25T04:44:00;3.37;;;2.40;;
2438;SDS011;14509;47.992;7.848;2023-04-25T04:46:23;8.53;;;3.13;;
2438;SDS011;14509;47.992;7.848;2023-04-25T04:48:35;3.17;;;2.87;;
2438;SDS011;14509;47.992;7.848;2023-04-25T04:51:00;4.87;;;2.70;;
2438;SDS011;14509;47.992;7.848;2023-04-25T04:53:21;12.10;;;2.40;;
2438;SDS011;14509;47.992;7.848;2023-04-25T04:55:42;2.80;;;2.30;;
2438;SDS011;14509;47.992;7.848;2023-04-25T04:58:02;5.30;;;2.40;;
2438;SDS011;14509;47.992;7.848;2023-04-25T05:00:26;2.90;;;2.63;;
2438;SDS011;14509;47.992;7.848;2023-04-25T05:03:04;8.33;;;3.20;;
2438;SDS011;14509;47.992;7.848;2023-04-25T05:05:21;2.80;;;2.20;;
2438;SDS011;14509;47.992;7.848;2023-04-25T05:07:42;2.90;;;2.60;;
2438;SDS011;14509;47.992;7.848;2023-04-25T05:10:03;3.03;;;2.17;;
2438;SDS011;14509;47.992;7.848;2023-04-25T05:12:16;2.90;;;2.57;;
2438;SDS011;14509;47.992;7.848;2023-04-25T05:14:21;6.43;;;2.47;;
2438;SDS011;14509;47.992;7.848;2023-04-25T05:16:39;7.30;;;2.97;;
2438;SDS011;14509;47.992;7.848;2023-04-25T05:19:10;4.07;;;2.83;;
2438;SDS011;14509;47.992;7.848;2023-04-25T05:21:35;3.90;;;3.17;;
2438;SDS011;14509;47.992;7.848;2023-04-25T05:23:47;4.60;;;2.93;;
2438;SDS011;14509;47.992;7.848;2023-04-25T05:26:19;8.90;;;3.50;;
2438;SDS011;14509;47.992;7.848;2023-04-25T05:28:42;4.33;;;2.67;;
2438;SDS011;14509;47.992;7.848;2023-04-25T05:31:02;3.07;;;2.60;;
2438;SDS011;14509;47.992;7.848;2023-04-25T05:33:15;3.23;;;2.60;;
2438;SDS011;14509;47.992;7.848;2023-04-25T05:35:18;2.53;;;2.33;;
2438;SDS011;14509;47.992;7.848;2023-04-25T05:37:22;3.00;;;2.70;;
2438;SDS011;14509;47.992;7.848;2023-04-25T05:39:36;2.70;;;2.50;;
2438;SDS011;14509;47.992;7.848;2023-04-25T05:41:48;2.87;;;1.97;;
2438;SDS011;14509;47.992;7.848;2023-04-25T05:44:12;1.43;;;1.20;;
2438;SDS011;14509;47.992;7.848;2023-04-25T05:46:22;1.50;;;1.40;;
2438;SDS011;14509;47.992;7.848;2023-04-25T05:48:59;2.10;;;1.07;;
2438;SDS011;14509;47.992;7.848;2023-04-25T05:51:20;2.00;;;0.90;;
2438;SDS011;14509;47.992;7.848;2023-04-25T05:53:22;2.97;;;1.00;;
2438;SDS011;14509;47.992;7.848;2023-04-25T05:55:30;2.40;;;1.50;;
2438;SDS011;14509;47.992;7.848;2023-04-25T05:57:36;2.20;;;1.00;;
2438;SDS011;14509;47.992;7.848;2023-04-25T05:59:41;0.87;;;0.87;;
2438;SDS011;14509;47.992;7.848;2023-04-25T06:01:43;0.90;;;0.90;;
2438;SDS011;14509;47.992;7.848;2023-04-25T06:03:46;1.37;;;1.27;;
2438;SDS011;14509;47.992;7.848;2023-04-25T06:05:48;1.63;;;1.07;;
2438;SDS011;14509;47.992;7.848;2023-04-25T06:07:50;0.90;;;0.77;;
2438;SDS011;14509;47.992;7.848;2023-04-25T06:09:52;3.23;;;1.43;;
2438;SDS011;14509;47.992;7.848;2023-04-25T06:11:54;1.20;;;0.90;;
2438;SDS011;14509;47.992;7.848;2023-04-25T06:13:58;0.70;;;0.60;;
2438;SDS011;14509;47.992;7.848;2023-04-25T06:16:00;1.43;;;0.63;;
2438;SDS011;14509;47.992;7.848;2023-04-25T06:18:02;3.60;;;1.10;;
2438;SDS011;14509;47.992;7.848;2023-04-25T06:20:05;1.27;;;0.70;;
2438;SDS011;14509;47.992;7.848;2023-04-25T06:22:08;1.23;;;0.53;;
2438;SDS011;14509;47.992;7.848;2023-04-25T06:24:14;0.90;;;0.73;;
2438;SDS011;14509;47.992;7.848;2023-04-25T06:26:16;1.27;;;1.17;;
2438;SDS011;14509;47.992;7.848;2023-04-25T06:28:19;1.40;;;0.80;;
2438;SDS011;14509;47.992;7.848;2023-04-25T06:30:23;1.77;;;0.90;;
2438;SDS011;14509;47.992;7.848;2023-04-25T06:32:30;1.20;;;0.90;;
2438;SDS011;14509;47.992;7.848;2023-04-25T06:34:34;2.03;;;0.97;;
2438;SDS011;14509;47.992;7.848;2023-04-25T06:36:39;2.00;;;0.60;;
2438;SDS011;14509;47.992;7.848;2023-04-25T06:38:45;0.80;;;0.60;;
2438;SDS011;14509;47.992;7.848;2023-04-25T06:40:59;1.07;;;0.97;;
2438;SDS011;14509;47.992;7.848;2023-04-25T06:43:09;1.57;;;0.90;;
2438;SDS011;14509;47.992;7.848;2023-04-25T06:45:42;1.60;;;1.20;;
2438;SDS011;14509;47.992;7.848;2023-04-25T06:47:54;1.17;;;1.10;;
2438;SDS011;14509;47.992;7.848;2023-04-25T06:50:02;0.97;;;0.97;;
2438;SDS011;14509;47.992;7.848;2023-04-25T06:52:14;1.53;;;1.13;;
2438;SDS011;14509;47.992;7.848;2023-04-25T06:54:26;2.47;;;1.50;;
2438;SDS011;14509;47.992;7.848;2023-04-25T06:56:39;1.17;;;0.93;;
2438;SDS011;14509;47.992;7.848;2023-04-25T06:58:47;2.03;;;1.60;;
2438;SDS011;14509;47.992;7.848;2023-04-25T07:01:07;3.83;;;1.30;;
2438;SDS011;14509;47.992;7.848;2023-04-25T07:03:11;2.23;;;1.43;;
2438;SDS011;14509;47.992;7.848;2023-04-25T07:05:19;4.07;;;1.33;;
2438;SDS011;14509;47.992;7.848;2023-04-25T07:07:38;2.73;;;1.20;;
2438;SDS011;14509;47.992;7.848;2023-04-25T07:09:45;1.60;;;1.50;;
2438;SDS011;14509;47.992;7.848;2023-04-25T07:11:53;2.57;;;1.60;;
2438;SDS011;14509;47.992;7.848;2023-04-25T07:13:57;2.33;;;1.70;;
2438;SDS011;14509;47.992;7.848;2023-04-25T07:16:01;1.93;;;1.73;;
2438;SDS011;14509;47.992;7.848;2023-04-25T07:18:13;2.17;;;1.70;;
2438;SDS011;14509;47.992;7.848;2023-04-25T07:20:17;1.80;;;1.47;;
2438;SDS011;14509;47.992;7.848;2023-04-25T07:22:21;2.90;;;1.57;;
2438;SDS011;14509;47.992;7.848;2023-04-25T07:24:37;1.70;;;1.37;;
2438;SDS011;14509;47.992;7.848;2023-04-25T07:26:51;2.50;;;2.23;;
2438;SDS011;14509;47.992;7.848;2023-04-25T07:29:08;3.53;;;1.87;;
2438;SDS011;14509;47.992;7.848;2023-04-25T07:31:12;1.57;;;1.47;;
2438;SDS011;14509;47.992;7.848;2023-04-25T07:33:34;2.77;;;2.10;;
2438;SDS011;14509;47.992;7.848;2023-04-25T07:35:37;1.93;;;1.83;;
2438;SDS011;14509;47.992;7.848;2023-04-25T07:37:56;2.53;;;1.80;;
2438;SDS011;14509;47.992;7.848;2023-04-25T07:40:03;4.87;;;2.73;;
2438;SDS011;14509;47.992;7.848;2023-04-25T07:42:17;3.30;;;2.50;;
2438;SDS011;14509;47.992;7.848;2023-04-25T07:44:28;2.37;;;2.03;;
2438;SDS011;14509;47.992;7.848;2023-04-25T07:46:39;4.13;;;2.43;;
2438;SDS011;14509;47.992;7.848;2023-04-25T07:48:47;4.20;;;2.37;;
2438;SDS011;14509;47.992;7.848;2023-04-25T07:50:56;2.60;;;2.40;;
2438;SDS011;14509;47.992;7.848;2023-04-25T07:53:02;2.97;;;2.77;;
2438;SDS011;14509;47.992;7.848;2023-04-25T07:55:18;6.00;;;3.93;;
2438;SDS011;14509;47.992;7.848;2023-04-25T07:57:37;4.70;;;3.33;;
2438;SDS011;14509;47.992;7.848;2023-04-25T07:59:45;3.43;;;2.53;;
2438;SDS011;14509;47.992;7.848;2023-04-25T08:01:53;4.03;;;2.70;;
2438;SDS011;14509;47.992;7.848;2023-04-25T08:04:03;4.53;;;4.10;;
2438;SDS011;14509;47.992;7.848;2023-04-25T08:06:39;3.30;;;3.00;;
2438;SDS011;14509;47.992;7.848;2023-04-25T08:08:51;4.17;;;3.80;;
2438;SDS011;14509;47.992;7.848;2023-04-25T08:11:27;3.43;;;3.00;;
2438;SDS011;14509;47.992;7.848;2023-04-25T08:16:42;3.30;;;2.73;;
2438;SDS011;14509;47.992;7.848;2023-04-25T08:22:48;3.23;;;2.97;;
2438;SDS011;14509;47.992;7.848;2023-04-25T08:30:19;3.70;;;2.20;;
2438;SDS011;14509;47.992;7.848;2023-04-25T08:39:50;2.40;;;1.50;;
2438;SDS011;14509;47.992;7.848;2023-04-25T08:42:55;5.57;;;3.00;;
2438;SDS011;14509;47.992;7.848;2023-04-25T08:57:18;1.97;;;1.77;;
2438;SDS011;14509;47.992;7.848;2023-04-25T08:59:38;2.33;;;1.83;;
2438;SDS011;14509;47.992;7.848;2023-04-25T09:01:53;2.83;;;2.40;;
2438;SDS011;14509;47.992;7.848;2023-04-25T09:04:05;3.40;;;1.87;;
2438;SDS011;14509;47.992;7.848;2023-04-25T09:06:18;2.30;;;1.77;;
2438;SDS011;14509;47.992;7.848;2023-04-25T09:08:41;3.50;;;1.40;;
2438;SDS011;14509;47.992;7.848;2023-04-25T09:10:52;3.90;;;2.67;;
2438;SDS011;14509;47.992;7.848;2023-04-25T09:13:14;2.50;;;2.27;;
2438;SDS011;14509;47.992;7.848;2023-04-25T09:16:00;3.90;;;2.23;;
2438;SDS011;14509;47.992;7.848;2023-04-25T09:18:25;2.37;;;1.57;;
2438;SDS011;14509;47.992;7.848;2023-04-25T09:20:38;2.80;;;2.23;;
2438;SDS011;14509;47.992;7.848;2023-04-25T09:23:06;3.33;;;2.57;;
2438;SDS011;14509;47.992;7.848;2023-04-25T09:25:14;2.60;;;2.37;;
2438;SDS011;14509;47.992;7.848;2023-04-25T09:27:24;2.20;;;1.93;;
2438;SDS011;14509;47.992;7.848;2023-04-25T09:29:43;3.40;;;1.70;;
2438;SDS011;14509;47.992;7.848;2023-04-25T09:31:51;2.17;;;1.90;;
2438;SDS011;14509;47.992;7.848;2023-04-25T09:34:04;7.93;;;2.40;;
2438;SDS011;14509;47.992;7.848;2023-04-25T09:38:59;2.77;;;1.63;;
2438;SDS011;14509;47.992;7.848;2023-04-25T09:41:22;1.93;;;1.63;;
2438;SDS011;14509;47.992;7.848;2023-04-25T09:43:34;1.63;;;1.43;;
2438;SDS011;14509;47.992;7.848;2023-04-25T09:45:43;2.60;;;2.00;;
2438;SDS011;14509;47.992;7.848;2023-04-25T09:48:12;1.60;;;1.50;;
2438;SDS011;14509;47.992;7.848;2023-04-25T09:51:03;6.53;;;2.00;;
2438;SDS011;14509;47.992;7.848;2023-04-25T09:53:07;2.07;;;1.63;;
2438;SDS011;14509;47.992;7.848;2023-04-25T09:55:26;2.50;;;1.77;;
2438;SDS011;14509;47.992;7.848;2023-04-25T09:57:28;1.60;;;1.13;;
2438;SDS011;14509;47.992;7.848;2023-04-25T09:59:32;2.80;;;1.60;;
2438;SDS011;14509;47.992;7.848;2023-04-25T10:01:40;1.50;;;1.40;;
2438;SDS011;14509;47.992;7.848;2023-04-25T10:03:55;1.63;;;1.53;;
2438;SDS011;14509;47.992;7.848;2023-04-25T10:06:20;3.07;;;1.30;;
2438;SDS011;14509;47.992;7.848;2023-04-25T10:08:24;2.10;;;1.20;;
2438;SDS011;14509;47.992;7.848;2023-04-25T10:10:32;1.17;;;1.00;;
2438;SDS011;14509;47.992;7.848;2023-04-25T10:12:36;2.10;;;1.00;;
2438;SDS011;14509;47.992;7.848;2023-04-25T10:14:40;1.73;;;0.97;;
2438;SDS011;14509;47.992;7.848;2023-04-25T10:16:45;2.90;;;1.30;;
2438;SDS011;14509;47.992;7.848;2023-04-25T10:18:49;2.27;;;1.90;;
2438;SDS011;14509;47.992;7.848;2023-04-25T10:20:53;3.33;;;1.83;;
2438;SDS011;14509;47.992;7.848;2023-04-25T10:22:57;1.40;;;1.30;;
2438;SDS011;14509;47.992;7.848;2023-04-25T10:25:05;1.40;;;1.30;;
2438;SDS011;14509;47.992;7.848;2023-04-25T10:27:12;2.67;;;2.47;;
2438;SDS011;14509;47.992;7.848;2023-04-25T10:29:26;1.53;;;1.23;;
2438;SDS011;14509;47.992;7.848;2023-04-25T10:31:31;1.77;;;1.67;;
2438;SDS011;14509;47.992;7.848;2023-04-25T10:33:35;2.57;;;1.73;;
2438;SDS011;14509;47.992;7.848;2023-04-25T10:35:52;2.13;;;1.63;;
2438;SDS011;14509;47.992;7.848;2023-04-25T10:37:57;1.73;;;1.63;;
2438;SDS011;14509;47.992;7.848;2023-04-25T10:40:13;2.13;;;1.80;;
2438;SDS011;14509;47.992;7.848;2023-04-25T10:42:23;2.70;;;2.47;;
2438;SDS011;14509;47.992;7.848;2023-04-25T10:44:27;2.27;;;2.07;;
2438;SDS011;14509;47.992;7.848;2023-04-25T10:46:29;5.10;;;2.20;;
2438;SDS011;14509;47.992;7.848;2023-04-25T10:48:32;5.53;;;2.30;;
2438;SDS011;14509;47.992;7.848;2023-04-25T10:50:39;2.97;;;2.30;;
2438;SDS011;14509;47.992;7.848;2023-04-25T10:52:41;4.27;;;2.90;;
2438;SDS011;14509;47.992;7.848;2023-04-25T10:54:48;3.93;;;2.23;;
2438;SDS011;14509;47.992;7.848;2023-04-25T10:59:39;2.57;;;2.37;;
2438;SDS011;14509;47.992;7.848;2023-04-25T11:01:42;2.70;;;1.90;;
2438;SDS011;14509;47.992;7.848;2023-04-25T11:03:45;2.30;;;2.10;;
2438;SDS011;14509;47.992;7.848;2023-04-25T11:05:52;2.30;;;1.90;;
2438;SDS011;14509;47.992;7.848;2023-04-25T11:07:55;2.40;;;2.20;;
2438;SDS011;14509;47.992;7.848;2023-04-25T11:09:58;2.50;;;2.20;;
2438;SDS011;14509;47.992;7.848;2023-04-25T11:12:04;5.27;;;2.20;;
2438;SDS011;14509;47.992;7.848;2023-04-25T11:16:34;1.70;;;1.60;;
2438;SDS011;14509;47.992;7.848;2023-04-25T11:18:42;2.30;;;2.10;;
2438;SDS011;14509;47.992;7.848;2023-04-25T11:20:44;3.77;;;2.50;;
2438;SDS011;14509;47.992;7.848;2023-04-25T11:22:53;2.30;;;2.03;;
2438;SDS011;14509;47.992;7.848;2023-04-25T11:26:07;3.30;;;2.13;;
2438;SDS011;14509;47.992;7.848;2023-04-25T11:28:11;2.40;;;2.20;;
2438;SDS011;14509;47.992;7.848;2023-04-25T11:30:14;2.03;;;1.70;;
2438;SDS011;14509;47.992;7.848;2023-04-25T11:32:21;1.80;;;1.70;;
2438;SDS011;14509;47.992;7.848;2023-04-25T11:34:23;2.30;;;1.70;;
2438;SDS011;14509;47.992;7.848;2023-04-25T11:36:26;2.30;;;1.90;;
2438;SDS011;14509;47.992;7.848;2023-04-25T11:38:30;2.83;;;1.97;;
2438;SDS011;14509;47.992;7.848;2023-04-25T11:40:32;3.07;;;2.00;;
2438;SDS011;14509;47.992;7.848;2023-04-25T11:58:19;5.53;;;2.27;;
2438;SDS011;14509;47.992;7.848;2023-04-25T12:00:22;2.20;;;2.10;;
2438;SDS011;14509;47.992;7.848;2023-04-25T12:02:25;3.93;;;2.40;;
2438;SDS011;14509;47.992;7.848;2023-04-25T12:04:29;2.63;;;2.43;;
2438;SDS011;14509;47.992;7.848;2023-04-25T12:06:32;2.60;;;2.40;;
2438;SDS011;14509;47.992;7.848;2023-04-25T12:08:38;2.80;;;2.40;;
2438;SDS011;14509;47.992;7.848;2023-04-25T12:11:00;2.67;;;2.30;;
2438;SDS011;14509;47.992;7.848;2023-04-25T12:13:16;3.10;;;2.80;;
2438;SDS011;14509;47.992;7.848;2023-04-25T12:15:23;1.90;;;1.80;;
2438;SDS011;14509;47.992;7.848;2023-04-25T12:17:28;3.63;;;2.80;;
2438;SDS011;14509;47.992;7.848;2023-04-25T12:19:33;2.80;;;2.27;;
2438;SDS011;14509;47.992;7.848;2023-04-25T12:21:36;2.47;;;2.27;;
2438;SDS011;14509;47.992;7.848;2023-04-25T12:23:38;3.30;;;2.80;;
2438;SDS011;14509;47.992;7.848;2023-04-25T12:25:42;3.93;;;2.63;;
2438;SDS011;14509;47.992;7.848;2023-04-25T12:27:45;2.70;;;2.10;;
2438;SDS011;14509;47.992;7.848;2023-04-25T12:29:52;2.60;;;2.10;;
2438;SDS011;14509;47.992;7.848;2023-04-25T12:31:56;3.40;;;2.00;;
2438;SDS011;14509;47.992;7.848;2023-04-25T12:34:00;3.00;;;2.43;;
2438;SDS011;14509;47.992;7.848;2023-04-25T12:36:02;3.93;;;2.10;;
2438;SDS011;14509;47.992;7.848;2023-04-25T12:38:11;3.70;;;2.00;;
2438;SDS011;14509;47.992;7.848;2023-04-25T12:40:22;2.87;;;2.10;;
2438;SDS011;14509;47.992;7.848;2023-04-25T12:42:24;3.53;;;2.70;;
2438;SDS011;14509;47.992;7.848;2023-04-25T12:44:26;1.80;;;1.70;;
2438;SDS011;14509;47.992;7.848;2023-04-25T12:46:34;1.83;;;1.70;;
2438;SDS011;14509;47.992;7.848;2023-04-25T12:48:36;2.37;;;1.57;;
2438;SDS011;14509;47.992;7.848;2023-04-25T12:50:40;1.60;;;1.50;;
2438;SDS011;14509;47.992;7.848;2023-04-25T12:52:42;2.37;;;2.17;;
2438;SDS011;14509;47.992;7.848;2023-04-25T12:54:44;1.63;;;1.53;;
2438;SDS011;14509;47.992;7.848;2023-04-25T12:56:46;1.57;;;1.33;;
2438;SDS011;14509;47.992;7.848;2023-04-25T12:58:48;4.97;;;3.90;;
2438;SDS011;14509;47.992;7.848;2023-04-25T13:00:50;5.03;;;1.37;;
2438;SDS011;14509;47.992;7.848;2023-04-25T13:02:54;2.77;;;1.53;;
2438;SDS011;14509;47.992;7.848;2023-04-25T13:04:56;1.40;;;1.20;;
2438;SDS011;14509;47.992;7.848;2023-04-25T13:07:02;1.30;;;1.20;;
2438;SDS011;14509;47.992;7.848;2023-04-25T15:47:23;2.20;;;1.70;;
2438;SDS011;14509;47.992;7.848;2023-04-25T15:49:26;1.50;;;1.40;;
2438;SDS011;14509;47.992;7.848;2023-04-25T15:51:28;2.23;;;2.03;;
2438;SDS011;14509;47.992;7.848;2023-04-25T15:53:31;2.43;;;2.23;;
2438;SDS011;14509;47.992;7.848;2023-04-25T15:55:33;1.40;;;1.30;;
2438;SDS011;14509;47.992;7.848;2023-04-25T15:57:36;2.60;;;2.33;;
2438;SDS011;14509;47.992;7.848;2023-04-25T15:59:41;2.30;;;1.70;;
2438;SDS011;14509;47.992;7.848;2023-04-25T16:01:43;2.13;;;1.53;;
2438;SDS011;14509;47.992;7.848;2023-04-25T16:03:46;2.63;;;2.20;;
2438;SDS011;14509;47.992;7.848;2023-04-25T16:05:49;1.80;;;1.70;;
2438;SDS011;14509;47.992;7.848;2023-04-25T16:07:52;2.03;;;1.80;;
2438;SDS011;14509;47.992;7.848;2023-04-25T16:09:57;3.10;;;2.50;;
2438;SDS011;14509;47.992;7.848;2023-04-25T16:11:59;2.17;;;1.97;;
2438;SDS011;14509;47.992;7.848;2023-04-25T16:14:05;1.90;;;1.70;;
2438;SDS011;14509;47.992;7.848;2023-04-25T16:16:13;2.60;;;2.10;;
2438;SDS011;14509;47.992;7.848;2023-04-25T16:18:15;1.40;;;1.30;;
2438;SDS011;14509;47.992;7.848;2023-04-25T16:20:19;2.30;;;1.53;;
2438;SDS011;14509;47.992;7.848;2023-04-25T16:22:21;1.27;;;1.10;;
2438;SDS011;14509;47.992;7.848;2023-04-25T16:24:29;1.73;;;1.47;;
2438;SDS011;14509;47.992;7.848;2023-04-25T16:26:31;2.27;;;1.83;;
2438;SDS011;14509;47.992;7.848;2023-04-25T16:28:33;1.70;;;1.60;;
2438;SDS011;14509;47.992;7.848;2023-04-25T16:30:36;1.60;;;1.33;;
2438;SDS011;14509;47.992;7.848;2023-04-25T16:32:39;3.80;;;1.47;;
2438;SDS011;14509;47.992;7.848;2023-04-25T16:34:41;0.90;;;0.90;;
2438;SDS011;14509;47.992;7.848;2023-04-25T16:36:46;1.90;;;1.40;;